Time;durP1;ratioP1;P1;durP2;ratioP2;P2;SDS_P1;SDS_P2;PMS_P1;PMS_P2;Temp;Humidity;BMP_temperature;BMP_pressure;BME280_temperature;BME280_humidity;BME280_pressure;Samples;Min_cycle;Max_cycle;Signal;HPM_P1;HPM_P2
2023/06/12 00:02:18;;;;;;;2.35;2.15;;;;;;;16.77;100.00;97622.22;1709534;75;672881;-75
2023/06/12 00:04:49;;;;;;;2.45;2.20;;;;;;;16.70;100.00;97614.50;1700498;75;728824;-74
2023/06/12 00:07:21;;;;;;;2.40;2.00;;;;;;;16.83;100.00;97620.16;1709049;75;670207;-77
2023/06/12 00:09:51;;;;;;;2.10;1.70;;;;;;;16.81;100.00;97614.41;1698041;75;903046;-78
2023/06/12 00:12:24;;;;;;;1.90;1.75;;;;;;;16.88;100.00;97626.16;1706679;75;934587;-77
2023/06/12 00:14:55;;;;;;;3.70;3.20;;;;;;;16.46;100.00;97622.78;1700621;75;747350;-75
2023/06/12 00:17:26;;;;;;;5.30;4.80;;;;;;;16.42;100.00;97611.25;1709762;75;678878;-74
2023/06/12 00:19:56;;;;;;;5.55;4.95;;;;;;;16.33;100.00;97615.09;1700928;75;756225;-76
2023/06/12 00:22:26;;;;;;;5.75;5.15;;;;;;;16.24;100.00;97610.66;1708161;75;783926;-73
2023/06/12 00:24:57;;;;;;;4.35;3.95;;;;;;;16.53;100.00;97609.13;1700495;75;745822;-75
2023/06/12 00:27:29;;;;;;;4.55;3.60;;;;;;;16.54;100.00;97599.56;1709380;75;713720;-77
2023/06/12 00:30:02;;;;;;;3.15;2.85;;;;;;;16.61;100.00;97615.56;1701166;75;749985;-76
2023/06/12 00:32:33;;;;;;;2.40;2.20;;;;;;;16.60;100.00;97605.78;1709609;75;675914;-74
2023/06/12 00:35:03;;;;;;;2.50;2.30;;;;;;;16.52;100.00;97604.84;1700491;75;734499;-76
2023/06/12 00:37:33;;;;;;;2.70;2.50;;;;;;;16.54;100.00;97609.88;1709467;75;671621;-75
2023/06/12 00:40:03;;;;;;;2.50;2.30;;;;;;;16.59;100.00;97606.31;1701253;75;733746;-73
2023/06/12 00:42:45;;;;;;;2.20;2.00;;;;;;;16.60;100.00;97611.31;1709372;75;675820;-75
2023/06/12 00:45:16;;;;;;;1.90;1.80;;;;;;;16.60;100.00;97616.13;1698435;75;894774;-76
2023/06/12 00:47:52;;;;;;;2.60;1.80;;;;;;;16.64;100.00;97616.56;1709092;75;676574;-74
2023/06/12 00:50:26;;;;;;;2.00;1.90;;;;;;;16.49;100.00;97616.94;1700832;75;746713;-75
2023/06/12 00:52:58;;;;;;;2.15;2.00;;;;;;;16.55;100.00;97611.38;1709312;75;673420;-77
2023/06/12 00:55:29;;;;;;;2.10;1.90;;;;;;;16.58;100.00;97607.59;1699040;75;860095;-77
2023/06/12 00:58:05;;;;;;;2.10;1.90;;;;;;;16.53;100.00;97600.09;1709523;75;670986;-74
2023/06/12 01:00:38;;;;;;;4.00;2.90;;;;;;;16.42;100.00;97602.97;1685226;75;1977440;-73
2023/06/12 01:03:12;;;;;;;3.10;2.80;;;;;;;16.46;100.00;97606.19;1709991;75;672023;-76
2023/06/12 01:05:47;;;;;;;2.70;2.40;;;;;;;16.49;100.00;97605.16;1700868;75;744293;-75
2023/06/12 01:08:35;;;;;;;2.20;2.00;;;;;;;16.58;100.00;97610.34;1709250;75;674971;-77
2023/06/12 01:11:09;;;;;;;2.10;1.80;;;;;;;16.61;100.00;97603.78;1699632;75;753533;-75
2023/06/12 01:13:42;;;;;;;2.90;1.75;;;;;;;16.58;100.00;97602.81;1705695;75;927692;-75
2023/06/12 01:16:12;;;;;;;1.75;1.65;;;;;;;16.58;100.00;97608.31;1701054;75;750957;-73
2023/06/12 01:18:43;;;;;;;3.95;1.90;;;;;;;16.46;100.00;97609.72;1710484;75;671927;-76
2023/06/12 01:21:24;;;;;;;1.80;1.70;;;;;;;16.55;100.00;97614.16;1701008;75;821425;-75
2023/06/12 01:24:36;;;;;;;1.85;1.75;;;;;;;16.55;100.00;97606.59;1703134;75;670969;-74
2023/06/12 01:27:42;;;;;;;1.60;1.50;;;;;;;16.60;100.00;97616.13;1701765;75;667191;-74
2023/06/12 01:30:46;;;;;;;1.50;1.40;;;;;;;16.52;100.00;97607.63;1701478;75;676931;-74
2023/06/12 01:33:25;;;;;;;2.05;1.85;;;;;;;16.46;100.00;97612.47;1700888;75;744475;-76
2023/06/12 01:35:56;;;;;;;3.50;3.20;;;;;;;16.39;100.00;97611.00;1702157;75;675701;-75
2023/06/12 01:38:30;;;;;;;3.20;2.90;;;;;;;16.46;100.00;97611.72;1709272;75;671431;-76
2023/06/12 01:41:02;;;;;;;2.70;2.50;;;;;;;16.41;100.00;97607.75;1701243;75;679380;-74
2023/06/12 01:43:33;;;;;;;3.95;2.70;;;;;;;16.47;100.00;97607.69;1709243;75;686483;-74
2023/06/12 01:46:03;;;;;;;2.20;2.00;;;;;;;16.53;100.00;97611.91;1701201;75;672305;-76
2023/06/12 01:48:36;;;;;;;3.80;2.10;;;;;;;16.49;100.00;97613.44;1709880;75;676612;-76
2023/06/12 01:51:06;;;;;;;2.60;2.00;;;;;;;16.39;100.00;97599.22;1700610;75;756090;-76
2023/06/12 01:53:36;;;;;;;1.80;1.70;;;;;;;16.40;100.00;97597.94;1707817;75;792219;-77
2023/06/12 01:56:07;;;;;;;2.00;1.85;;;;;;;16.39;100.00;97610.28;1701405;75;678143;-74
2023/06/12 01:58:38;;;;;;;1.70;1.60;;;;;;;16.48;100.00;97601.66;1710217;75;673159;-73
2023/06/12 02:01:15;;;;;;;1.70;1.60;;;;;;;16.47;100.00;97596.63;1698856;75;941313;-76
2023/06/12 02:03:48;;;;;;;1.80;1.60;;;;;;;16.43;100.00;97588.66;1706174;75;977682;-73
2023/06/12 02:06:20;;;;;;;1.40;1.30;;;;;;;16.47;100.00;97591.09;1699860;75;754473;-74
2023/06/12 02:08:50;;;;;;;2.20;1.50;;;;;;;16.38;100.00;97592.94;1709549;75;676941;-75
2023/06/12 02:11:21;;;;;;;1.50;1.40;;;;;;;16.42;100.00;97595.41;1700993;75;753667;-75
2023/06/12 02:13:51;;;;;;;1.30;1.20;;;;;;;16.38;100.00;97595.72;1709325;75;676714;-75
2023/06/12 02:16:21;;;;;;;1.45;1.35;;;;;;;16.35;100.00;97593.97;1701065;75;735712;-75
2023/06/12 02:18:55;;;;;;;1.45;1.35;;;;;;;16.34;100.00;97588.97;1709770;75;693326;-74
2023/06/12 02:21:25;;;;;;;1.50;1.40;;;;;;;16.34;100.00;97583.44;1702866;75;740783;-76
2023/06/12 02:23:57;;;;;;;1.45;1.35;;;;;;;16.33;100.00;97591.00;1709076;75;938091;-77
2023/06/12 02:26:27;;;;;;;1.65;1.55;;;;;;;16.35;100.00;97595.97;1704395;75;741788;-77
2023/06/12 02:29:12;;;;;;;2.15;1.35;;;;;;;16.37;100.00;97582.41;1652802;75;5906218;-78
2023/06/12 02:31:42;;;;;;;2.80;1.30;;;;;;;16.33;100.00;97593.75;1481445;67;19327688;-76
2023/06/12 02:34:15;;;;;;;1.80;1.60;;;;;;;16.34;100.00;97594.50;1710956;75;701733;-76
2023/06/12 02:36:46;;;;;;;1.40;1.30;;;;;;;16.35;100.00;97595.97;1698724;75;932585;-76
2023/06/12 02:39:17;;;;;;;1.70;1.60;;;;;;;16.22;100.00;97593.09;1707408;75;959453;-74
2023/06/12 02:41:50;;;;;;;1.50;1.40;;;;;;;16.25;100.00;97592.81;1698427;75;957155;-77
2023/06/12 02:44:20;;;;;;;1.70;1.60;;;;;;;16.21;100.00;97595.13;1710271;75;687756;-78
2023/06/12 02:46:56;;;;;;;2.00;1.80;;;;;;;16.16;100.00;97593.13;1701140;75;741981;-76
2023/06/12 02:49:31;;;;;;;2.80;2.50;;;;;;;16.15;100.00;97599.94;1701811;75;842313;-73
2023/06/12 02:52:02;;;;;;;3.45;2.90;;;;;;;16.14;100.00;97592.94;1709788;75;681129;-77
2023/06/12 02:54:33;;;;;;;2.90;2.60;;;;;;;16.24;100.00;97596.84;1688362;75;1841644;-76
2023/06/12 02:57:03;;;;;;;2.60;2.30;;;;;;;16.22;100.00;97599.38;1709866;75;674081;-73
2023/06/12 02:59:33;;;;;;;2.30;2.10;;;;;;;16.26;100.00;97599.06;1702398;75;677282;-76
2023/06/12 03:02:03;;;;;;;2.30;2.10;;;;;;;16.22;100.00;97591.09;1683871;75;2906366;-77
2023/06/12 03:04:36;;;;;;;2.10;1.90;;;;;;;16.27;100.00;97600.59;1700809;75;792352;-75
2023/06/12 03:07:07;;;;;;;2.10;1.90;;;;;;;16.23;100.00;97595.34;1709771;75;673634;-75
2023/06/12 03:09:38;;;;;;;1.70;1.60;;;;;;;16.27;100.00;97600.59;1701600;75;677079;-76
2023/06/12 03:12:10;;;;;;;1.60;1.50;;;;;;;16.30;100.00;97599.56;1709781;75;680131;-77
2023/06/12 03:14:42;;;;;;;1.50;1.40;;;;;;;16.31;100.00;97601.81;1699964;75;835619;-76
2023/06/12 03:17:12;;;;;;;2.00;1.80;;;;;;;16.29;100.00;97598.06;1709538;75;675910;-77
2023/06/12 03:19:45;;;;;;;1.40;1.30;;;;;;;16.29;100.00;97596.03;1700755;75;678907;-74
2023/06/12 03:22:16;;;;;;;1.60;1.50;;;;;;;16.26;100.00;97599.84;1709034;75;683828;-78
2023/06/12 03:24:46;;;;;;;1.70;1.60;;;;;;;16.29;100.00;97600.84;1701295;75;709331;-75
2023/06/12 03:27:16;;;;;;;1.50;1.40;;;;;;;16.31;100.00;97604.56;1709093;75;677475;-75
2023/06/12 03:29:47;;;;;;;1.65;1.55;;;;;;;16.28;100.00;97597.28;1702238;75;676967;-77
2023/06/12 03:32:17;;;;;;;1.50;1.40;;;;;;;16.23;100.00;97597.34;1709039;75;687006;-74
2023/06/12 03:34:50;;;;;;;1.90;1.60;;;;;;;16.30;100.00;97611.34;1700815;75;678957;-75
2023/06/12 03:37:23;;;;;;;1.70;1.50;;;;;;;16.36;100.00;97619.59;1709068;75;688785;-75
2023/06/12 03:39:53;;;;;;;1.70;1.60;;;;;;;16.18;100.00;97613.44;1700837;75;744869;-74
2023/06/12 03:42:26;;;;;;;2.05;1.90;;;;;;;16.18;100.00;97610.69;1709286;75;672907;-76
2023/06/12 03:44:56;;;;;;;2.55;2.20;;;;;;;16.20;100.00;97618.47;1699779;75;794304;-79
2023/06/12 03:47:26;;;;;;;2.50;2.30;;;;;;;16.25;100.00;97623.19;1708919;75;678001;-76
2023/06/12 03:50:00;;;;;;;1.95;1.80;;;;;;;16.29;100.00;97622.94;1700982;75;745726;-77
2023/06/12 03:52:30;;;;;;;2.20;1.70;;;;;;;16.34;100.00;97628.41;1709180;75;679412;-77
2023/06/12 03:55:00;;;;;;;2.10;1.90;;;;;;;16.39;100.00;97630.34;1696575;75;982938;-76
2023/06/12 03:57:30;;;;;;;1.65;1.55;;;;;;;16.29;100.00;97626.44;1708484;75;674111;-74
2023/06/12 04:00:00;;;;;;;1.85;1.65;;;;;;;16.42;100.00;97630.59;1701006;75;736277;-77
2023/06/12 04:02:31;;;;;;;1.55;1.45;;;;;;;16.48;100.00;97634.06;1705916;75;955959;-73
2023/06/12 04:05:04;;;;;;;2.35;2.15;;;;;;;16.48;100.00;97626.53;1700472;75;747438;-74
2023/06/12 04:07:34;;;;;;;2.60;2.40;;;;;;;16.47;100.00;97627.78;1709034;75;677004;-75
2023/06/12 04:10:04;;;;;;;3.75;3.30;;;;;;;16.54;100.00;97623.69;1701159;75;742387;-77
2023/06/12 04:12:35;;;;;;;4.60;4.10;;;;;;;16.59;100.00;97628.41;1709508;75;686009;-76
2023/06/12 04:15:06;;;;;;;5.10;4.35;;;;;;;16.50;100.00;97631.50;1699046;75;763610;-77
2023/06/12 04:17:36;;;;;;;4.10;3.60;;;;;;;16.46;100.00;97631.81;1705980;75;948156;-74
2023/06/12 04:20:11;;;;;;;3.80;3.40;;;;;;;16.43;100.00;97627.31;1699969;75;754748;-73
2023/06/12 04:22:43;;;;;;;3.20;2.90;;;;;;;16.40;100.00;97626.34;1703972;75;787231;-73
2023/06/12 04:25:13;;;;;;;3.35;3.05;;;;;;;16.40;100.00;97631.09;1710194;75;680450;-77
2023/06/12 04:27:43;;;;;;;3.75;3.20;;;;;;;16.53;100.00;97630.50;1700856;75;678250;-74
2023/06/12 04:30:15;;;;;;;2.40;2.20;;;;;;;16.66;100.00;97627.09;1707017;75;931755;-73
2023/06/12 04:32:45;;;;;;;3.90;2.70;;;;;;;16.63;100.00;97641.97;1700945;75;685657;-74
2023/06/12 04:35:19;;;;;;;2.50;2.30;;;;;;;16.65;100.00;97633.91;1709262;75;674411;-74
2023/06/12 04:37:52;;;;;;;2.55;2.30;;;;;;;16.69;100.00;97626.81;1700547;75;774250;-76
2023/06/12 04:40:24;;;;;;;2.40;2.20;;;;;;;16.76;100.00;97629.03;1709850;75;684312;-75
2023/06/12 04:43:00;;;;;;;3.20;2.90;;;;;;;16.85;100.00;97632.72;1688637;75;1769126;-74
2023/06/12 04:45:32;;;;;;;3.20;2.80;;;;;;;16.72;100.00;97625.03;1708162;75;751510;-75
2023/06/12 04:48:04;;;;;;;2.45;2.25;;;;;;;16.75;100.00;97632.28;1701461;75;679566;-77
2023/06/12 04:50:37;;;;;;;2.90;2.60;;;;;;;16.80;100.00;97628.75;1709310;75;679983;-74
2023/06/12 04:53:07;;;;;;;2.60;2.40;;;;;;;16.78;100.00;97631.25;1700635;75;748738;-73
2023/06/12 04:55:38;;;;;;;3.40;3.10;;;;;;;16.71;100.00;97621.50;1707099;75;890534;-76
2023/06/12 04:58:08;;;;;;;3.50;2.85;;;;;;;16.78;100.00;97625.72;1700521;75;728127;-76
2023/06/12 05:00:39;;;;;;;3.25;2.95;;;;;;;16.84;100.00;97623.69;1708870;75;761821;-74
2023/06/12 05:03:10;;;;;;;2.90;2.60;;;;;;;17.04;100.00;97619.69;1699384;75;749074;-76
2023/06/12 05:05:42;;;;;;;2.55;2.35;;;;;;;17.05;100.00;97621.16;1709060;75;682970;-75
2023/06/12 05:08:13;;;;;;;2.65;2.45;;;;;;;17.00;100.00;97627.50;1700622;75;743901;-75
2023/06/12 05:10:43;;;;;;;3.90;3.20;;;;;;;17.02;100.00;97614.66;1709776;75;676919;-76
2023/06/12 05:13:13;;;;;;;2.95;2.60;;;;;;;17.00;100.00;97613.69;1700103;75;765905;-75
2023/06/12 05:15:44;;;;;;;2.60;2.40;;;;;;;17.10;100.00;97616.84;1708393;75;674969;-77
2023/06/12 05:18:14;;;;;;;4.45;3.20;;;;;;;17.04;100.00;97619.69;1699906;75;721664;-74
2023/06/12 05:20:47;;;;;;;3.35;3.05;;;;;;;17.14;100.00;97622.84;1709662;75;685158;-74
2023/06/12 05:23:18;;;;;;;3.10;2.80;;;;;;;17.32;100.00;97616.59;1698561;75;830048;-76
2023/06/12 05:25:48;;;;;;;3.60;2.60;;;;;;;17.48;100.00;97614.09;1709819;75;682368;-74
2023/06/12 05:28:18;;;;;;;2.80;2.10;;;;;;;17.59;100.00;97614.69;1701119;75;734522;-73
2023/06/12 05:30:49;;;;;;;2.45;2.25;;;;;;;17.55;100.00;97621.81;1711402;75;675145;-75
2023/06/12 05:33:20;;;;;;;3.15;2.85;;;;;;;17.44;100.00;97622.72;1701744;75;760504;-74
2023/06/12 05:35:53;;;;;;;6.70;5.60;;;;;;;17.31;100.00;97625.41;1708649;75;872673;-75
2023/06/12 05:38:23;;;;;;;5.05;4.50;;;;;;;17.59;100.00;97628.53;1699387;75;751886;-74
2023/06/12 05:40:53;;;;;;;6.40;5.00;;;;;;;17.45;100.00;97621.44;1705296;75;987489;-74
2023/06/12 05:43:23;;;;;;;4.30;3.90;;;;;;;17.83;100.00;97621.44;1700060;75;741678;-75
2023/06/12 05:45:53;;;;;;;4.35;3.40;;;;;;;17.82;100.00;97620.72;1709135;75;680713;-74
2023/06/12 05:48:24;;;;;;;4.20;3.80;;;;;;;17.83;100.00;97619.41;1700633;75;737773;-72
2023/06/12 05:50:56;;;;;;;4.60;3.85;;;;;;;17.89;100.00;97622.09;1709551;75;678393;-74
2023/06/12 05:53:27;;;;;;;3.45;3.15;;;;;;;17.86;100.00;97623.16;1698570;75;747747;-78
2023/06/12 05:55:57;;;;;;;3.85;3.40;;;;;;;17.86;100.00;97626.66;1709900;75;680097;-77
2023/06/12 05:58:27;;;;;;;3.95;3.25;;;;;;;17.89;100.00;97624.88;1700001;75;806902;-76
2023/06/12 06:01:00;;;;;;;5.95;3.50;;;;;;;17.94;100.00;97628.81;1709064;75;677509;-75
2023/06/12 06:03:33;;;;;;;3.20;2.90;;;;;;;17.96;100.00;97634.59;1699381;75;798664;-76
2023/06/12 06:06:07;;;;;;;3.40;3.00;;;;;;;18.00;100.00;97629.50;1706882;75;843813;-76
2023/06/12 06:08:38;;;;;;;4.30;3.50;;;;;;;18.00;100.00;97635.03;1700741;75;742403;-76
2023/06/12 06:11:08;;;;;;;4.45;4.05;;;;;;;17.91;100.00;97629.88;1708871;75;676462;-74
2023/06/12 06:13:39;;;;;;;5.85;4.75;;;;;;;17.91;100.00;97627.88;1698577;75;762045;-77
2023/06/12 06:16:10;;;;;;;5.20;4.70;;;;;;;18.02;100.00;97624.19;1707914;75;673140;-76
2023/06/12 06:18:41;;;;;;;5.30;4.40;;;;;;;18.07;100.00;97632.41;1700404;75;770056;-74
2023/06/12 06:21:14;;;;;;;5.90;5.40;;;;;;;17.83;100.00;97624.97;1708940;75;692239;-75
2023/06/12 06:23:44;;;;;;;6.20;5.30;;;;;;;17.84;100.00;97631.97;1697792;75;941924;-76
2023/06/12 06:26:15;;;;;;;6.70;5.70;;;;;;;17.92;100.00;97632.16;1705776;75;968739;-74
2023/06/12 06:28:46;;;;;;;5.15;4.65;;;;;;;18.00;100.00;97630.25;1701839;75;745039;-75
2023/06/12 06:31:16;;;;;;;4.90;4.00;;;;;;;18.23;100.00;97633.41;1710331;75;676393;-76
2023/06/12 06:33:46;;;;;;;4.70;4.30;;;;;;;18.15;100.00;97632.53;1697925;75;955242;-74
2023/06/12 06:36:19;;;;;;;5.70;5.10;;;;;;;18.21;100.00;97633.19;1711989;75;689803;-74
2023/06/12 06:38:49;;;;;;;5.80;5.20;;;;;;;18.18;100.00;97645.31;1703130;75;755655;-73
2023/06/12 06:41:19;;;;;;;7.55;4.60;;;;;;;18.35;100.00;97630.44;1714617;75;667762;-73
2023/06/12 06:43:50;;;;;;;4.90;4.40;;;;;;;18.59;100.00;97630.31;1705940;75;737847;-76
2023/06/12 06:46:21;;;;;;;4.70;4.30;;;;;;;18.77;100.00;97628.72;1712159;75;676546;-73
2023/06/12 06:48:52;;;;;;;4.50;4.10;;;;;;;18.87;100.00;97635.34;1703211;75;723929;-76
2023/06/12 06:51:24;;;;;;;5.00;4.25;;;;;;;18.86;100.00;97641.44;1708358;75;781440;-75
2023/06/12 06:53:55;;;;;;;4.80;4.30;;;;;;;18.66;100.00;97640.72;1699887;75;769637;-76
2023/06/12 06:56:25;;;;;;;5.20;4.40;;;;;;;18.74;100.00;97632.56;1709504;75;678546;-77
2023/06/12 06:58:56;;;;;;;4.65;4.05;;;;;;;19.02;100.00;97634.81;1700028;75;755959;-74
2023/06/12 07:01:27;;;;;;;3.95;3.55;;;;;;;18.88;100.00;97636.09;1709105;75;674935;-74
2023/06/12 07:03:57;;;;;;;5.50;4.40;;;;;;;18.78;100.00;97640.56;1700708;75;755336;-76
2023/06/12 07:06:30;;;;;;;3.80;3.40;;;;;;;18.94;100.00;97634.72;1707103;75;840745;-74
2023/06/12 07:09:01;;;;;;;4.90;3.55;;;;;;;19.08;100.00;97631.94;1700026;75;743642;-74
2023/06/12 07:11:31;;;;;;;3.55;3.25;;;;;;;18.92;100.00;97633.75;1708236;75;764532;-73
2023/06/12 07:14:02;;;;;;;3.75;3.20;;;;;;;19.19;100.00;97634.47;1701174;75;741172;-77
2023/06/12 07:16:33;;;;;;;3.30;2.80;;;;;;;19.37;100.00;97636.38;1708592;75;674651;-74
2023/06/12 07:19:04;;;;;;;3.50;2.70;;;;;;;19.33;100.00;97633.19;1700603;75;746232;-74
2023/06/12 07:21:36;;;;;;;3.95;3.05;;;;;;;19.24;100.00;97638.41;1709146;75;673642;-75
2023/06/12 07:24:08;;;;;;;3.90;3.35;;;;;;;19.15;100.00;97632.03;1700120;75;747943;-76
2023/06/12 07:26:38;;;;;;;4.45;3.40;;;;;;;19.15;100.00;97634.81;1695164;75;1854123;-78
2023/06/12 07:29:08;;;;;;;3.05;2.75;;;;;;;19.44;100.00;97631.47;1700406;75;762018;-74
2023/06/12 07:31:38;;;;;;;3.20;2.90;;;;;;;19.58;100.00;97636.44;1708956;75;678459;-74
2023/06/12 07:34:08;;;;;;;4.60;3.50;;;;;;;19.56;100.00;97636.25;1685979;75;1856620;-78
2023/06/12 07:36:41;;;;;;;3.25;2.95;;;;;;;20.02;100.00;97635.28;1705411;75;976755;-75
2023/06/12 07:39:11;;;;;;;5.70;5.10;;;;;;;19.91;100.00;97634.22;1700914;75;751473;-75
2023/06/12 07:41:42;;;;;;;6.80;5.35;;;;;;;20.06;100.00;97632.88;1694284;75;1961129;-75
2023/06/12 07:44:13;;;;;;;6.35;4.80;;;;;;;19.85;99.11;97633.63;1700108;75;748385;-73
2023/06/12 07:46:45;;;;;;;5.00;4.10;;;;;;;20.30;100.00;97638.13;1708483;75;675778;-75
2023/06/12 07:49:16;;;;;;;5.10;4.60;;;;;;;20.03;100.00;97645.81;1700758;75;740137;-76
2023/06/12 07:51:48;;;;;;;4.00;3.60;;;;;;;20.30;97.24;97629.03;1709198;75;673846;-78
2023/06/12 07:54:19;;;;;;;5.80;3.90;;;;;;;20.54;94.19;97634.25;1700225;75;742102;-73
2023/06/12 07:56:50;;;;;;;4.35;3.20;;;;;;;20.47;87.18;97625.81;1708443;75;679992;-75
2023/06/12 07:59:21;;;;;;;3.60;3.30;;;;;;;20.77;92.02;97628.84;1700750;75;753404;-76
2023/06/12 08:01:51;;;;;;;5.70;4.20;;;;;;;20.73;89.80;97631.22;1709057;75;743962;-73
2023/06/12 08:04:21;;;;;;;5.90;4.05;;;;;;;20.76;89.72;97627.38;1698620;75;829491;-73
2023/06/12 08:06:54;;;;;;;5.80;3.60;;;;;;;20.97;88.42;97621.00;1705627;75;874421;-76
2023/06/12 08:09:25;;;;;;;3.35;3.00;;;;;;;20.95;87.86;97624.34;1699913;75;758809;-74
2023/06/12 08:11:55;;;;;;;3.00;2.70;;;;;;;20.86;84.58;97627.63;1708244;75;676741;-75
2023/06/12 08:14:25;;;;;;;5.50;3.80;;;;;;;20.42;79.56;97619.88;1697592;75;906700;-73
2023/06/12 08:16:55;;;;;;;6.90;2.90;;;;;;;20.57;84.72;97632.44;1705676;75;972714;-73
2023/06/12 08:19:26;;;;;;;4.60;3.10;;;;;;;20.72;82.68;97624.19;1696973;75;926657;-73
2023/06/12 08:21:59;;;;;;;3.55;3.15;;;;;;;20.81;85.44;97620.91;1708773;75;678995;-72
2023/06/12 08:24:30;;;;;;;6.80;4.00;;;;;;;20.66;82.60;97623.59;1701187;75;738178;-75
2023/06/12 08:27:01;;;;;;;4.30;3.70;;;;;;;20.86;85.58;97616.50;1707860;75;696649;-75
2023/06/12 08:29:31;;;;;;;4.90;3.40;;;;;;;20.72;83.67;97618.63;1698724;75;771277;-73
2023/06/12 08:32:01;;;;;;;4.30;3.30;;;;;;;21.16;85.11;97615.16;1707329;75;800044;-75
2023/06/12 08:34:32;;;;;;;3.90;3.25;;;;;;;21.02;79.51;97617.31;1687218;75;1700959;-76
2023/06/12 08:37:04;;;;;;;3.80;3.20;;;;;;;20.60;77.17;97614.66;1708507;75;674376;-75
2023/06/12 08:39:35;;;;;;;4.80;3.50;;;;;;;20.53;78.90;97616.06;1700968;75;747683;-73
2023/06/12 08:42:11;;;;;;;4.55;3.30;;;;;;;20.63;81.65;97613.56;1709479;75;670118;-76
2023/06/12 08:44:46;;;;;;;4.80;3.25;;;;;;;20.79;87.63;97620.72;1699070;75;758699;-73
2023/06/12 08:47:18;;;;;;;3.85;3.45;;;;;;;20.66;83.02;97620.81;1709339;75;679999;-74
2023/06/12 08:49:50;;;;;;;4.10;2.60;;;;;;;20.83;79.52;97617.59;1697699;75;955654;-75
2023/06/12 08:52:24;;;;;;;4.10;3.60;;;;;;;20.83;81.80;97618.34;1709461;75;704586;-74
2023/06/12 08:54:55;;;;;;;3.95;3.40;;;;;;;21.03;79.89;97614.00;1701230;75;747829;-75
2023/06/12 08:57:27;;;;;;;3.50;3.20;;;;;;;21.30;84.27;97618.56;1709080;75;683489;-74
2023/06/12 08:59:57;;;;;;;5.50;3.35;;;;;;;21.12;79.58;97621.09;1700095;75;745777;-74
2023/06/12 09:02:30;;;;;;;3.90;3.40;;;;;;;21.31;81.79;97617.25;1707948;75;680798;-74
2023/06/12 09:05:06;;;;;;;5.25;3.40;;;;;;;20.97;80.36;97618.22;1700368;75;756644;-76
2023/06/12 09:07:42;;;;;;;7.25;3.40;;;;;;;20.83;82.83;97617.59;1699968;75;907951;-72
2023/06/12 09:10:14;;;;;;;3.65;3.25;;;;;;;20.90;82.65;97616.91;1706468;75;985047;-73
2023/06/12 09:12:45;;;;;;;3.10;2.80;;;;;;;21.32;81.29;97618.78;1700910;75;677679;-74
2023/06/12 09:15:20;;;;;;;3.50;3.20;;;;;;;21.20;81.63;97621.13;1709110;75;674426;-73
2023/06/12 09:17:51;;;;;;;4.20;3.80;;;;;;;21.13;83.61;97611.44;1701721;75;678442;-73
2023/06/12 09:20:27;;;;;;;4.05;3.20;;;;;;;21.51;80.07;97615.72;1709784;75;673418;-73
2023/06/12 09:23:01;;;;;;;4.45;3.85;;;;;;;21.45;81.34;97613.06;1699990;75;765238;-73
2023/06/12 09:25:39;;;;;;;5.70;3.80;;;;;;;21.44;77.58;97606.78;1709649;75;676438;-72
2023/06/12 09:28:10;;;;;;;5.70;4.10;;;;;;;21.62;78.79;97604.97;1699203;75;752173;-73
2023/06/12 09:30:44;;;;;;;5.40;4.10;;;;;;;21.75;76.53;97606.13;1710240;75;670726;-72
2023/06/12 09:33:15;;;;;;;4.30;3.60;;;;;;;21.72;79.62;97605.19;1700863;75;749867;-75
2023/06/12 09:35:56;;;;;;;6.20;3.70;;;;;;;21.64;76.16;97599.56;1694771;75;1950384;-73
2023/06/12 09:38:35;;;;;;;4.55;3.80;;;;;;;21.72;75.10;97596.84;1700123;75;762379;-72
2023/06/12 09:41:07;;;;;;;4.40;4.00;;;;;;;22.06;77.10;97601.34;1687265;75;1882036;-74
2023/06/12 09:43:38;;;;;;;4.70;3.80;;;;;;;22.12;74.32;97599.84;1708914;75;682576;-75
2023/06/12 09:46:09;;;;;;;4.50;3.80;;;;;;;21.98;75.24;97595.00;1699751;75;740417;-75
2023/06/12 09:48:41;;;;;;;3.25;2.80;;;;;;;22.51;74.11;97588.72;1710137;75;684111;-74
2023/06/12 09:51:13;;;;;;;4.50;3.40;;;;;;;21.86;70.04;97595.38;1687657;75;1898979;-74
2023/06/12 09:53:46;;;;;;;4.30;3.50;;;;;;;22.02;73.79;97590.56;1709773;75;679006;-73
2023/06/12 09:56:17;;;;;;;3.70;3.15;;;;;;;22.68;69.55;97576.97;1700682;75;675222;-73
2023/06/12 09:58:49;;;;;;;3.80;3.05;;;;;;;22.75;70.90;97573.41;1709625;75;684185;-73
2023/06/12 10:01:21;;;;;;;4.90;3.30;;;;;;;22.48;68.41;97581.47;1701428;75;680146;-76
2023/06/12 10:03:56;;;;;;;4.55;3.55;;;;;;;22.30;67.49;97581.31;1709597;75;674899;-73
2023/06/12 10:06:29;;;;;;;3.40;3.10;;;;;;;22.43;69.88;97571.25;1685970;75;1826285;-73
2023/06/12 10:09:03;;;;;;;3.00;2.70;;;;;;;22.59;68.91;97575.50;1709369;75;673788;-76
2023/06/12 10:11:33;;;;;;;3.40;2.50;;;;;;;23.01;67.15;97577.09;1698950;75;874508;-72
2023/06/12 10:14:04;;;;;;;2.90;2.50;;;;;;;23.27;66.72;97582.22;1710209;75;671322;-71
2023/06/12 10:16:35;;;;;;;3.70;3.20;;;;;;;23.09;63.55;97580.59;1697239;75;931708;-73
2023/06/12 10:19:08;;;;;;;2.85;2.60;;;;;;;23.49;65.27;97577.09;1710610;75;675403;-74
2023/06/12 10:21:38;;;;;;;3.15;2.50;;;;;;;23.35;61.68;97571.00;1700969;75;744418;-74
2023/06/12 10:24:12;;;;;;;3.00;2.80;;;;;;;22.62;62.09;97573.66;1709724;75;684244;-74
2023/06/12 10:26:42;;;;;;;3.35;2.70;;;;;;;23.21;63.49;97575.34;1699337;75;757888;-71
2023/06/12 10:29:32;;;;;;;2.50;2.30;;;;;;;23.59;62.41;97573.13;1710739;75;675295;-73
2023/06/12 10:32:12;;;;;;;3.00;2.65;;;;;;;23.42;60.56;97575.06;1700751;75;742703;-74
2023/06/12 10:34:48;;;;;;;4.75;2.60;;;;;;;23.06;60.48;97581.75;1700270;75;701600;-75
2023/06/12 10:37:27;;;;;;;3.20;2.50;;;;;;;23.14;59.37;97571.31;1708104;75;690871;-75
2023/06/12 10:40:26;;;;;;;3.70;3.00;;;;;;;22.62;60.63;97577.16;1700967;75;697254;-74
2023/06/12 10:43:06;;;;;;;3.40;3.10;;;;;;;22.76;62.26;97567.28;1701585;75;681887;-76
2023/06/12 10:45:38;;;;;;;4.40;3.10;;;;;;;23.04;63.82;97579.53;1708795;75;674251;-73
2023/06/12 10:48:20;;;;;;;3.20;2.90;;;;;;;22.96;64.14;97576.72;1700760;75;745581;-75
2023/06/12 10:50:53;;;;;;;3.10;2.60;;;;;;;23.59;67.09;97572.38;1701246;75;677125;-75
2023/06/12 10:53:26;;;;;;;2.55;2.35;;;;;;;23.72;62.19;97576.97;1708124;75;683682;-72
2023/06/12 10:56:11;;;;;;;2.60;2.40;;;;;;;23.54;60.72;97576.13;1701686;75;675419;-74
2023/06/12 10:58:43;;;;;;;4.20;2.80;;;;;;;23.15;62.92;97562.34;1710097;75;679847;-72
2023/06/12 11:01:18;;;;;;;3.50;3.20;;;;;;;23.05;61.93;97561.47;1698494;75;873053;-74
2023/06/12 11:03:48;;;;;;;5.80;3.60;;;;;;;22.86;62.53;97561.13;1708757;75;740316;-72
2023/06/12 11:06:20;;;;;;;4.90;4.00;;;;;;;22.86;63.49;97556.28;1699838;75;756598;-72
2023/06/12 11:08:50;;;;;;;4.25;3.50;;;;;;;23.15;63.98;97542.78;1709169;75;677783;-76
2023/06/12 11:11:23;;;;;;;4.35;3.20;;;;;;;23.80;64.67;97546.94;1700252;75;756774;-74
2023/06/12 11:13:53;;;;;;;3.50;3.10;;;;;;;23.61;62.19;97550.94;1706885;75;907854;-72
2023/06/12 11:16:26;;;;;;;8.85;3.80;;;;;;;23.41;61.96;97551.25;1699209;75;746702;-74
2023/06/12 11:19:08;;;;;;;4.70;3.30;;;;;;;22.89;61.65;97546.03;1707313;75;878340;-74
2023/06/12 11:21:40;;;;;;;3.10;2.80;;;;;;;23.25;62.06;97537.34;1700705;75;753179;-74
2023/06/12 11:24:17;;;;;;;3.90;3.25;;;;;;;23.33;60.59;97532.47;1696152;75;1783727;-74
2023/06/12 11:26:53;;;;;;;3.70;3.20;;;;;;;23.40;60.20;97536.53;1699492;75;745874;-77
2023/06/12 11:29:25;;;;;;;3.10;2.80;;;;;;;23.97;60.72;97530.22;1701626;75;674513;-73
2023/06/12 11:32:05;;;;;;;3.70;2.95;;;;;;;23.30;59.96;97539.19;1709668;75;675573;-74
2023/06/12 11:34:38;;;;;;;6.40;3.60;;;;;;;22.77;60.01;97531.75;1701418;75;678462;-76
2023/06/12 11:37:19;;;;;;;3.25;2.85;;;;;;;22.96;60.69;97534.84;1709551;75;806824;-74
2023/06/12 11:39:50;;;;;;;2.60;2.40;;;;;;;23.52;61.06;97526.41;1690801;75;1760964;-73
2023/06/12 11:42:23;;;;;;;3.00;2.45;;;;;;;23.46;58.33;97530.75;1710527;75;853421;-75
2023/06/12 11:44:54;;;;;;;2.60;2.20;;;;;;;23.41;57.40;97526.84;1706362;75;740166;-74